Warrendale, PA (15086)

2:52 PM EDT on August 22, 2017 (GMT -0400)
Joan | | Change Station
Active Advisory: Severe Thunderstorm Watch

Elev 1047 ft 40.68 °N, 80.13 °W | Updated 1 minute ago

Overcast
Overcast
80.1 °F
Feels Like 84 °F
N
0.0
Wind Variable Wind from SE

Today
High -- | Low -- °F
--% Chance of Precip.
Yesterday
High -- | Low -- °F
Precip. -- in
Pressure 30.42 in
Visibility 9.0 miles
Clouds Few 1400 ft
Mostly Cloudy 3000 ft
Overcast 5500 ft
Heat Index 84 °F
Dew Point 73 °F
Humidity 80%
Rainfall 0.00 in
Snow Depth Not available.
6:37 AM 8:07 PM
New Moon, 1% visible
METAR KBTP 221835Z 15003KT 9SM FEW014 BKN030 OVC055 21/19 A2988 RMK AO2 WSHFT 46 LTG DSNT ALQDS TSE27 SLP299 PWINO PNO FZRANO RVRNO
Pressure 30.42 in
Visibility 9.0 miles
Clouds Few 1400 ft
Mostly Cloudy 3000 ft
Overcast 5500 ft
Heat Index 84 °F
Dew Point 73 °F
Humidity 80%
Rainfall 0.00 in
Snow Depth Not available.
6:37 AM 8:07 PM
New Moon, 1% visible
METAR KBTP 221835Z 15003KT 9SM FEW014 BKN030 OVC055 21/19 A2988 RMK AO2 WSHFT 46 LTG DSNT ALQDS TSE27 SLP299 PWINO PNO FZRANO RVRNO

Get Your Daily Forecast Email!

Thanks for signing up!

Be on the lookout for a verification email in your inbox.

You'll start receiving severe weather alerts in your inbox..

×

10-Day Weather Forecast

Almanac

Astronomy

Aug. 22, 2017 Rise Set
Actual Time
Civil Twilight
Nautical Twilight
Astronomical Twilight
Moon
Length of Visible Light
Length of Day
Tomorrow will be .
, % of the Moon is Illuminated

Today's Extremes

State Highs State Lows

Community

WunderPhotos

Category 6

Welcome to Category 6. This is the collective home for Weather Underground's featured writeups by Dr. Jeff Masters (right), Bob Henson (left), Chris Burt, and other regular contributors.

Nearby

Air Quality

  Air Quality AQ Index Pollutant
Not available.

Snow Depth

Station Depth Elevation

Earthquake Activity

City Distance Mag. Time & Date
Minimum magnitude displayed is 2.5.

Coastal Water Temperatures

Place Temperature

Stations

Nearby Weather Stations

Station Location Temp. Windchill Dew Point Humidity Wind Precip. Elev Updated Type
                   

Watches & Warnings

Severe Thunderstorm Watch
Issued: 2:43 PM EDT Aug. 22, 2017 – National Weather Service

Severe Thunderstorm Watch 462 remains in effect until 900 PM EDT

PA
. Pennsylvania counties included are

Allegheny Armstrong Beaver
Bedford Blair Butler
Cambria centre Clarion
Clearfield Fayette Forest
Greene Huntingdon Indiana
Jefferson Lawrence Mercer
Somerset Venango Washington
Westmoreland